Terminal Aerodrome Forecast
Issued by NWS

Home | Current Version | Previous Version | Text Only | Print | Product List | Glossary On
Versions: 1 2 3 4 5 6 7 8 9 10 11 12 13 14 15 16
000
FTUS44 KLZK 230500 RRA
TAFBPK
TAF
KBPK 230549Z 2306/2406 VRB03KT P6SM SKC
     FM231000 36005KT P6SM VCSH SCT050
     FM231600 02005KT P6SM FEW050 SCT100
     FM240000 04003KT P6SM FEW250=

USA.gov is the U.S. government's official web portal to all federal, state and local government web resources and services.